Terminal Aerodrome Forecast
Issued by NWS

Home | Current Version | Previous Version | Text Only | Print | Product List | Glossary On
Versions: 1 2 3 4 5 6 7 8 9 10 11 12 13 14 15 16 17 18 19 20 21 22 23 24 25 26 27 28 29 30 31 32 33 34 35 36 37 38 39 40
000
FTUS44 KFWD 290127 AAA
TAFAFW
TAF AMD
KAFW 290127Z 2901/2924 17012KT P6SM VCTS BKN050CB
     FM290300 32015G25KT 3SM TSRA BKN010CB
     FM290500 33012KT 6SM -TSRA BKN025CB
      TEMPO 2905/2907 3SM -TSRA BKN015CB
     FM290700 18010KT P6SM BKN250
     FM291200 18010KT 5SM -RA BR BKN025
     FM291800 18014KT P6SM SCT040 BKN130
     FM292000 18014KT P6SM VCTS SCT050CB BKN130=

USA.gov is the U.S. government's official web portal to all federal, state and local government web resources and services.